Time;durP1;ratioP1;P1;durP2;ratioP2;P2;SDS_P1;SDS_P2;PMS_P1;PMS_P2;Temp;Humidity;BMP_temperature;BMP_pressure;BME280_temperature;BME280_humidity;BME280_pressure;Samples;Min_cycle;Max_cycle;Signal;HPM_P1;HPM_P2
2023/12/19 00:01:36;;;;;;;34.85;17.15;;;8.10;99.90;;;;;;4955819;29;20070;-88
2023/12/19 00:04:03;;;;;;;38.65;17.65;;;8.10;99.90;;;;;;4956216;29;20051;-87
2023/12/19 00:06:30;;;;;;;33.80;16.17;;;7.80;99.90;;;;;;4955685;29;20060;-87
2023/12/19 00:08:56;;;;;;;32.65;15.75;;;7.80;99.90;;;;;;4955771;29;20519;-87
2023/12/19 00:11:23;;;;;;;35.00;16.95;;;7.80;99.90;;;;;;4967700;29;20044;-87
2023/12/19 00:13:50;;;;;;;38.80;16.50;;;7.80;99.90;;;;;;4954951;29;20098;-87
2023/12/19 00:16:16;;;;;;;40.22;16.35;;;7.80;99.90;;;;;;4956020;29;20575;-88
2023/12/19 00:18:43;;;;;;;33.78;15.80;;;7.80;99.90;;;;;;4941138;29;20044;-88
2023/12/19 00:21:10;;;;;;;28.00;15.23;;;7.80;99.90;;;;;;4943470;29;20032;-88
2023/12/19 00:23:36;;;;;;;39.55;16.85;;;7.90;99.90;;;;;;4955493;29;20063;-88
2023/12/19 00:26:05;;;;;;;30.20;15.32;;;7.80;99.90;;;;;;4947263;29;20040;-88
2023/12/19 00:28:31;;;;;;;36.45;15.15;;;7.80;99.90;;;;;;4967743;29;20055;-88
2023/12/19 00:30:58;;;;;;;32.92;16.33;;;8.50;99.90;;;;;;4971171;29;20039;-88
2023/12/19 00:33:25;;;;;;;45.50;16.38;;;7.80;99.90;;;;;;4943104;29;20122;-87
2023/12/19 00:35:51;;;;;;;34.72;15.80;;;7.90;99.90;;;;;;4961782;29;20055;-87
2023/12/19 00:38:18;;;;;;;35.95;17.17;;;7.90;99.90;;;;;;4952585;29;20481;-87
2023/12/19 00:40:44;;;;;;;34.17;15.63;;;7.80;99.90;;;;;;4955240;29;20042;-88
2023/12/19 00:43:11;;;;;;;29.50;14.45;;;7.80;99.90;;;;;;4971162;29;20035;-88
2023/12/19 00:45:39;;;;;;;35.03;15.70;;;8.60;99.90;;;;;;4955910;29;20035;-88
2023/12/19 00:48:06;;;;;;;30.80;14.95;;;7.80;99.90;;;;;;4952023;29;20048;-88
2023/12/19 00:50:32;;;;;;;32.22;14.77;;;8.60;99.90;;;;;;4951092;29;20040;-88
2023/12/19 00:52:59;;;;;;;35.25;15.75;;;7.90;99.90;;;;;;4947079;29;20079;-88
2023/12/19 00:55:26;;;;;;;33.45;15.15;;;7.90;99.90;;;;;;4951034;29;20493;-88
2023/12/19 00:57:52;;;;;;;33.45;15.25;;;8.30;99.90;;;;;;4955214;29;20136;-88
2023/12/19 01:00:19;;;;;;;38.15;15.32;;;7.90;99.90;;;;;;4970842;29;20058;-88
2023/12/19 01:02:46;;;;;;;29.35;14.63;;;7.90;99.90;;;;;;4955194;29;20040;-88
2023/12/19 01:05:13;;;;;;;30.23;14.48;;;7.90;99.90;;;;;;4941613;29;20501;-88
2023/12/19 01:07:40;;;;;;;33.55;14.40;;;7.90;99.90;;;;;;4936117;29;20055;-89
2023/12/19 01:10:07;;;;;;;29.95;14.38;;;8.00;99.90;;;;;;4970394;29;20854;-88
2023/12/19 01:12:33;;;;;;;37.67;14.65;;;7.90;99.90;;;;;;4939802;29;20103;-88
2023/12/19 01:15:00;;;;;;;28.73;13.68;;;7.90;99.90;;;;;;4954610;29;20051;-88
2023/12/19 01:17:27;;;;;;;34.42;13.40;;;7.90;99.90;;;;;;4955101;29;20044;-87
2023/12/19 01:19:53;;;;;;;27.23;12.75;;;7.90;99.90;;;;;;4944173;29;20042;-88
2023/12/19 01:22:20;;;;;;;31.30;12.68;;;8.10;99.90;;;;;;4948328;29;20032;-88
2023/12/19 01:24:47;;;;;;;28.52;12.30;;;7.90;99.90;;;;;;4946498;29;20036;-87
2023/12/19 01:27:13;;;;;;;26.45;12.77;;;8.10;99.90;;;;;;4949828;29;20036;-86
2023/12/19 01:29:41;;;;;;;29.50;12.38;;;8.00;99.90;;;;;;4947289;29;20040;-88
2023/12/19 01:32:07;;;;;;;27.27;12.55;;;8.00;99.90;;;;;;4947645;29;20050;-88
2023/12/19 01:34:34;;;;;;;28.70;11.70;;;8.00;99.90;;;;;;4961675;29;20052;-88
2023/12/19 01:37:01;;;;;;;21.70;11.68;;;7.90;99.90;;;;;;4945759;29;20122;-88
2023/12/19 01:39:27;;;;;;;26.27;11.63;;;8.00;99.90;;;;;;4942072;29;20132;-88
2023/12/19 01:41:55;;;;;;;23.85;11.00;;;8.00;99.90;;;;;;4960839;29;20043;-88
2023/12/19 01:44:22;;;;;;;26.70;11.52;;;8.00;99.90;;;;;;4960386;29;20040;-88
2023/12/19 01:46:48;;;;;;;27.17;11.05;;;8.40;99.90;;;;;;4947293;29;20047;-88
2023/12/19 01:49:15;;;;;;;24.17;10.25;;;8.00;99.90;;;;;;4947066;29;20051;-88
2023/12/19 01:51:42;;;;;;;19.88;11.40;;;8.00;99.90;;;;;;4948203;29;20086;-88
2023/12/19 01:54:09;;;;;;;23.42;10.60;;;8.00;99.90;;;;;;4954312;29;20050;-88
2023/12/19 01:56:36;;;;;;;21.45;10.05;;;7.90;99.90;;;;;;4941736;29;20056;-88
2023/12/19 01:59:05;;;;;;;21.38;10.65;;;8.70;99.90;;;;;;4953879;29;20044;-88
2023/12/19 02:01:37;;;;;;;21.30;10.13;;;8.50;99.90;;;;;;4953901;29;20095;-88
2023/12/19 02:04:50;;;;;;;20.10;10.23;;;8.30;99.90;;;;;;4954096;29;20040;-87
2023/12/19 02:07:16;;;;;;;22.27;10.00;;;8.00;99.90;;;;;;4946806;29;20135;-88
2023/12/19 02:09:43;;;;;;;16.80;9.45;;;8.60;99.90;;;;;;4949055;29;20130;-88
2023/12/19 02:12:10;;;;;;;17.25;10.05;;;8.10;99.90;;;;;;4982232;29;20043;-88
2023/12/19 02:14:39;;;;;;;19.25;10.00;;;8.00;99.90;;;;;;4950649;29;20040;-87
2023/12/19 02:17:06;;;;;;;18.77;9.43;;;8.00;99.90;;;;;;4953583;29;20040;-87
2023/12/19 02:19:32;;;;;;;20.00;10.07;;;8.00;99.90;;;;;;4942466;29;20048;-88
2023/12/19 02:21:59;;;;;;;23.23;9.93;;;8.50;99.90;;;;;;4951018;29;20066;-88
2023/12/19 02:24:25;;;;;;;21.75;10.43;;;8.00;99.90;;;;;;4947648;29;20516;-88
2023/12/19 02:26:55;;;;;;;17.35;9.57;;;8.00;99.90;;;;;;4939333;29;20035;-88
2023/12/19 02:29:21;;;;;;;17.33;9.35;;;8.00;99.90;;;;;;4969435;29;20047;-88
2023/12/19 02:31:48;;;;;;;16.77;8.98;;;8.10;99.90;;;;;;4953851;29;20044;-87
2023/12/19 02:34:15;;;;;;;20.45;8.90;;;8.70;99.90;;;;;;4946013;29;20051;-88
2023/12/19 02:36:41;;;;;;;16.98;8.60;;;8.40;99.90;;;;;;4953065;29;20047;-87
2023/12/19 02:39:10;;;;;;;17.08;8.75;;;9.00;99.90;;;;;;4944952;29;20131;-88
2023/12/19 02:41:36;;;;;;;16.02;8.25;;;8.00;99.90;;;;;;4953664;29;20040;-88
2023/12/19 02:44:03;;;;;;;14.85;8.30;;;8.20;99.90;;;;;;4969189;29;20094;-88
2023/12/19 02:46:30;;;;;;;16.35;8.57;;;8.00;99.90;;;;;;4969137;29;20044;-88
2023/12/19 02:48:56;;;;;;;14.38;7.65;;;8.10;99.90;;;;;;4969352;29;20130;-88
2023/12/19 02:51:24;;;;;;;12.25;7.20;;;8.40;99.90;;;;;;4942853;29;20044;-88
2023/12/19 02:53:52;;;;;;;16.33;7.82;;;8.10;99.90;;;;;;4948298;29;20044;-88
2023/12/19 02:56:19;;;;;;;14.93;7.88;;;8.10;99.90;;;;;;4952383;29;20432;-88
2023/12/19 02:58:45;;;;;;;13.82;7.78;;;8.10;99.90;;;;;;4952729;29;20048;-88
2023/12/19 03:01:12;;;;;;;15.10;7.75;;;8.10;99.90;;;;;;4941374;29;20052;-88
2023/12/19 03:03:40;;;;;;;16.60;7.97;;;8.10;99.90;;;;;;4952015;29;20044;-87
2023/12/19 03:06:07;;;;;;;14.35;8.02;;;8.80;99.90;;;;;;4940485;29;20036;-88
2023/12/19 03:08:35;;;;;;;13.77;7.93;;;8.10;99.90;;;;;;4946816;29;20058;-88
2023/12/19 03:11:02;;;;;;;16.17;8.63;;;8.10;99.90;;;;;;4955736;29;20082;-88
2023/12/19 03:13:29;;;;;;;14.80;7.80;;;8.00;99.90;;;;;;4957800;29;20044;-88
2023/12/19 03:15:55;;;;;;;15.68;7.72;;;8.00;99.90;;;;;;4925498;29;20046;-88
2023/12/19 03:18:25;;;;;;;14.77;7.38;;;8.00;99.90;;;;;;4922359;29;20040;-87
2023/12/19 03:20:51;;;;;;;14.15;7.55;;;8.00;99.90;;;;;;4945380;29;20097;-88
2023/12/19 03:23:19;;;;;;;15.38;7.93;;;7.90;99.90;;;;;;4942168;29;20067;-88
2023/12/19 03:25:45;;;;;;;14.60;7.22;;;7.90;99.90;;;;;;4945920;29;20039;-88
2023/12/19 03:28:12;;;;;;;13.75;6.65;;;8.00;99.90;;;;;;4940168;29;20126;-88
2023/12/19 03:30:39;;;;;;;10.95;6.10;;;7.90;99.90;;;;;;4947767;29;20512;-89
2023/12/19 03:33:06;;;;;;;13.90;6.50;;;7.90;99.90;;;;;;4931665;29;20052;-87
2023/12/19 03:35:32;;;;;;;11.60;6.30;;;7.80;99.90;;;;;;4923172;29;20496;-88
2023/12/19 03:37:59;;;;;;;13.02;6.60;;;7.80;99.90;;;;;;4937062;29;20068;-88
2023/12/19 03:40:26;;;;;;;10.70;6.13;;;7.80;99.90;;;;;;4940785;29;20118;-88
2023/12/19 03:42:52;;;;;;;11.15;6.47;;;7.80;99.90;;;;;;4929979;29;20036;-88
2023/12/19 03:45:19;;;;;;;11.25;6.38;;;8.70;99.90;;;;;;4930744;29;20136;-87
2023/12/19 03:47:46;;;;;;;11.60;5.90;;;7.70;99.90;;;;;;4955171;29;20047;-88
2023/12/19 03:50:12;;;;;;;10.38;6.25;;;8.40;99.90;;;;;;4951711;29;20501;-88
2023/12/19 03:52:39;;;;;;;12.10;6.75;;;7.70;99.90;;;;;;4946813;29;20048;-86
2023/12/19 03:55:08;;;;;;;10.98;6.43;;;7.70;99.90;;;;;;4945411;29;20048;-86
2023/12/19 03:57:34;;;;;;;11.13;6.55;;;7.70;99.90;;;;;;4940537;29;20510;-86
2023/12/19 04:00:03;;;;;;;10.95;5.95;;;8.20;99.90;;;;;;4940665;29;20142;-87
2023/12/19 04:02:30;;;;;;;11.27;6.32;;;7.60;99.90;;;;;;4929712;29;20044;-86
2023/12/19 04:04:56;;;;;;;10.82;6.53;;;7.60;99.90;;;;;;4944813;29;20046;-87
2023/12/19 04:07:23;;;;;;;12.32;5.90;;;7.60;99.90;;;;;;4948069;29;20119;-87
2023/12/19 04:09:49;;;;;;;10.68;6.35;;;8.00;99.90;;;;;;4955969;29;20044;-86
2023/12/19 04:12:16;;;;;;;11.93;6.32;;;8.30;99.90;;;;;;4961668;29;20036;-86
2023/12/19 04:14:43;;;;;;;12.90;6.43;;;7.80;99.90;;;;;;4948890;29;20031;-86
2023/12/19 04:17:10;;;;;;;10.63;6.28;;;7.60;99.90;;;;;;4943994;29;20032;-86
2023/12/19 04:19:39;;;;;;;10.13;6.32;;;8.10;99.90;;;;;;4956014;29;20239;-86
2023/12/19 04:22:06;;;;;;;11.13;6.18;;;7.50;99.90;;;;;;4955502;29;20113;-87
2023/12/19 04:24:32;;;;;;;11.85;5.85;;;7.60;99.90;;;;;;4966652;29;20031;-87
2023/12/19 04:26:59;;;;;;;11.18;5.78;;;7.50;99.90;;;;;;4963160;29;20512;-87
2023/12/19 04:29:26;;;;;;;10.43;5.63;;;7.50;99.90;;;;;;4971071;29;20050;-87
2023/12/19 04:31:52;;;;;;;10.20;5.97;;;7.50;99.90;;;;;;4956054;29;20098;-87
2023/12/19 04:34:19;;;;;;;10.38;5.90;;;8.00;99.90;;;;;;4968957;29;20036;-87
2023/12/19 04:36:45;;;;;;;10.13;5.82;;;7.60;99.90;;;;;;4946328;29;20188;-86
2023/12/19 04:39:12;;;;;;;10.82;5.65;;;8.10;99.90;;;;;;4952585;29;20152;-87
2023/12/19 04:41:39;;;;;;;9.82;5.80;;;7.50;99.90;;;;;;4971726;29;20076;-87
2023/12/19 04:44:06;;;;;;;10.82;5.53;;;8.10;99.90;;;;;;4956036;29;20027;-87
2023/12/19 04:46:32;;;;;;;9.75;5.40;;;7.50;99.90;;;;;;4956179;29;20066;-87
2023/12/19 04:48:59;;;;;;;10.32;5.70;;;7.90;99.90;;;;;;4971787;29;20123;-87
2023/12/19 04:51:26;;;;;;;10.48;5.82;;;8.20;99.90;;;;;;4955859;29;20512;-87
2023/12/19 04:53:53;;;;;;;9.50;5.57;;;7.90;99.90;;;;;;4942992;29;20055;-87
2023/12/19 04:56:20;;;;;;;9.90;5.40;;;7.60;99.90;;;;;;4954996;29;20043;-88
2023/12/19 04:58:46;;;;;;;11.10;5.90;;;7.90;99.90;;;;;;4955330;29;20493;-88
2023/12/19 05:01:13;;;;;;;9.48;5.22;;;8.00;99.90;;;;;;4955998;29;20480;-88
2023/12/19 05:03:41;;;;;;;8.98;5.28;;;7.50;99.90;;;;;;4955729;29;20043;-88
2023/12/19 05:06:08;;;;;;;9.40;5.47;;;8.10;99.90;;;;;;4952315;29;20067;-88
2023/12/19 05:08:35;;;;;;;10.10;5.25;;;7.80;99.90;;;;;;4951934;29;20078;-87
2023/12/19 05:11:04;;;;;;;9.98;5.25;;;7.50;99.90;;;;;;4961167;29;20587;-87
2023/12/19 05:13:30;;;;;;;11.48;5.30;;;7.40;99.90;;;;;;4956494;29;20768;-87
2023/12/19 05:15:57;;;;;;;11.15;5.10;;;7.70;99.90;;;;;;4955139;29;20047;-87
2023/12/19 05:18:23;;;;;;;8.95;5.10;;;7.70;99.90;;;;;;4941737;29;20055;-88
2023/12/19 05:20:50;;;;;;;9.57;5.15;;;7.80;99.90;;;;;;4940039;29;20139;-87
2023/12/19 05:23:17;;;;;;;9.30;4.95;;;7.50;99.90;;;;;;4951930;29;20046;-87
2023/12/19 05:25:43;;;;;;;9.63;4.70;;;7.50;99.90;;;;;;4947918;29;20035;-87
2023/12/19 05:28:10;;;;;;;8.63;4.63;;;7.40;99.90;;;;;;4940001;29;20039;-87
2023/12/19 05:30:37;;;;;;;10.40;4.65;;;7.40;99.90;;;;;;4942461;29;20571;-87
2023/12/19 05:33:04;;;;;;;8.68;4.82;;;7.50;99.90;;;;;;4943547;29;20488;-87
2023/12/19 05:35:30;;;;;;;7.88;4.40;;;7.50;99.90;;;;;;4926819;29;20494;-87
2023/12/19 05:37:57;;;;;;;12.88;4.55;;;7.50;99.90;;;;;;4928615;29;20043;-87
2023/12/19 05:40:24;;;;;;;9.80;4.43;;;7.50;99.90;;;;;;4944289;29;20046;-87
2023/12/19 05:42:54;;;;;;;8.35;4.20;;;7.40;99.90;;;;;;4950401;29;20544;-87
2023/12/19 05:45:21;;;;;;;8.27;4.20;;;7.40;99.90;;;;;;4944042;29;20398;-86
2023/12/19 05:47:48;;;;;;;8.65;3.80;;;7.40;99.90;;;;;;4943725;29;20047;-87
2023/12/19 05:50:14;;;;;;;6.75;3.75;;;7.70;99.90;;;;;;4958480;29;20043;-86
2023/12/19 05:52:41;;;;;;;8.20;3.58;;;7.80;99.90;;;;;;4945696;29;20108;-86
2023/12/19 05:55:08;;;;;;;7.80;4.13;;;8.10;99.90;;;;;;4933697;29;20046;-86
2023/12/19 05:57:36;;;;;;;6.82;3.92;;;7.40;99.90;;;;;;4929418;29;20036;-86
2023/12/19 06:00:03;;;;;;;7.18;3.92;;;7.40;99.90;;;;;;4935021;29;20119;-86
2023/12/19 06:02:30;;;;;;;6.30;3.65;;;7.40;99.90;;;;;;4943476;29;20508;-86
2023/12/19 06:05:00;;;;;;;7.00;4.20;;;7.50;99.90;;;;;;4941973;29;20036;-86
2023/12/19 06:07:29;;;;;;;7.78;4.13;;;8.20;99.90;;;;;;4950954;28;20583;-86
2023/12/19 06:09:56;;;;;;;6.78;3.80;;;7.40;99.90;;;;;;4955857;29;20051;-86
2023/12/19 06:12:22;;;;;;;8.68;3.92;;;8.10;99.90;;;;;;4933046;29;20043;-86
2023/12/19 06:14:49;;;;;;;9.20;3.70;;;7.50;99.90;;;;;;4951434;29;20441;-86
2023/12/19 06:17:15;;;;;;;6.80;3.83;;;7.40;99.90;;;;;;4927229;29;20071;-87
2023/12/19 06:19:42;;;;;;;6.82;3.50;;;7.50;99.90;;;;;;4921953;29;20040;-86
2023/12/19 06:22:10;;;;;;;7.22;4.00;;;7.50;99.90;;;;;;4953891;29;20496;-87
2023/12/19 06:24:36;;;;;;;6.55;3.65;;;7.80;99.90;;;;;;4935244;29;20111;-87
2023/12/19 06:27:04;;;;;;;7.25;3.47;;;7.60;99.90;;;;;;4932561;29;20048;-86
2023/12/19 06:29:30;;;;;;;8.55;4.00;;;7.50;99.90;;;;;;4931834;29;20537;-87
2023/12/19 06:31:57;;;;;;;7.60;4.07;;;7.50;99.90;;;;;;4934507;29;20095;-87
2023/12/19 06:34:26;;;;;;;7.63;3.80;;;7.50;99.90;;;;;;4928937;29;20059;-87
2023/12/19 06:36:52;;;;;;;7.47;3.35;;;7.50;99.90;;;;;;4937171;29;20504;-87
2023/12/19 06:39:19;;;;;;;6.07;3.47;;;7.50;99.90;;;;;;4938284;29;20051;-87
2023/12/19 06:41:45;;;;;;;8.45;4.00;;;7.60;99.90;;;;;;4949237;29;20040;-86
2023/12/19 06:44:13;;;;;;;7.47;3.75;;;7.70;99.90;;;;;;4961269;29;20062;-86
2023/12/19 06:46:39;;;;;;;8.00;4.10;;;7.50;99.90;;;;;;4949270;29;20489;-87
2023/12/19 06:49:06;;;;;;;6.88;3.42;;;8.30;99.90;;;;;;4948655;29;20059;-87
2023/12/19 06:51:33;;;;;;;7.65;3.72;;;7.70;99.90;;;;;;4943444;29;20512;-87
2023/12/19 06:54:00;;;;;;;6.65;3.83;;;8.00;99.90;;;;;;4937484;29;20054;-87
2023/12/19 06:56:29;;;;;;;7.03;3.63;;;7.60;99.90;;;;;;4943865;29;20118;-87
2023/12/19 06:58:56;;;;;;;8.43;3.78;;;7.50;99.90;;;;;;4950018;29;20079;-87
2023/12/19 07:01:24;;;;;;;6.18;3.55;;;7.50;99.90;;;;;;4941270;29;20071;-87
2023/12/19 07:03:51;;;;;;;7.10;3.80;;;7.90;99.90;;;;;;4937748;29;20098;-87
2023/12/19 07:06:19;;;;;;;6.70;3.60;;;7.50;99.90;;;;;;4923767;29;20044;-87
2023/12/19 07:08:45;;;;;;;7.32;3.80;;;7.50;99.90;;;;;;4942628;29;20051;-87
2023/12/19 07:11:13;;;;;;;6.82;4.00;;;7.50;99.90;;;;;;4940825;29;20050;-87
2023/12/19 07:13:40;;;;;;;6.63;3.83;;;7.50;99.90;;;;;;4936015;29;20048;-87
2023/12/19 07:16:07;;;;;;;5.53;3.33;;;7.50;99.90;;;;;;4958062;29;20052;-87
2023/12/19 07:18:33;;;;;;;6.50;3.72;;;7.60;99.90;;;;;;4928807;29;20080;-87
2023/12/19 07:21:00;;;;;;;7.63;3.85;;;8.10;99.90;;;;;;4928929;29;20036;-87
2023/12/19 07:23:27;;;;;;;7.80;3.65;;;7.50;99.90;;;;;;4936561;29;20039;-87
2023/12/19 07:25:56;;;;;;;8.10;3.83;;;7.50;99.90;;;;;;4931797;29;20123;-87
2023/12/19 07:28:23;;;;;;;6.88;3.28;;;7.50;99.90;;;;;;4930664;29;20123;-87
2023/12/19 07:30:50;;;;;;;5.63;3.53;;;7.50;99.90;;;;;;4943882;29;20059;-87
2023/12/19 07:33:17;;;;;;;7.40;3.97;;;7.50;99.90;;;;;;4936762;29;20052;-87
2023/12/19 07:35:44;;;;;;;7.80;4.53;;;7.50;99.90;;;;;;4945534;29;20044;-87
2023/12/19 07:38:10;;;;;;;6.10;3.55;;;7.50;99.90;;;;;;4931300;29;20047;-86
2023/12/19 07:40:38;;;;;;;7.45;3.85;;;7.60;99.90;;;;;;4943635;29;20043;-87
2023/12/19 07:43:04;;;;;;;8.25;4.13;;;7.60;99.90;;;;;;4950886;29;20040;-87
2023/12/19 07:45:32;;;;;;;7.07;3.78;;;7.60;99.90;;;;;;4923034;29;20040;-86
2023/12/19 07:47:58;;;;;;;7.70;4.13;;;7.60;99.90;;;;;;4965571;29;20043;-87
2023/12/19 07:50:27;;;;;;;7.68;3.75;;;7.50;99.90;;;;;;4950703;29;20054;-87
2023/12/19 07:52:53;;;;;;;6.43;3.60;;;8.40;99.90;;;;;;4932731;29;20166;-86
2023/12/19 07:55:21;;;;;;;7.50;3.72;;;7.60;99.90;;;;;;4937506;29;20065;-87
2023/12/19 07:57:48;;;;;;;7.70;3.78;;;7.60;99.90;;;;;;4932536;29;20039;-87
2023/12/19 08:00:15;;;;;;;7.75;4.22;;;7.60;99.90;;;;;;4932207;29;20043;-87
2023/12/19 08:02:42;;;;;;;6.82;3.80;;;7.60;99.90;;;;;;4952083;29;20042;-87
2023/12/19 08:05:10;;;;;;;9.05;3.70;;;7.70;99.90;;;;;;4926808;29;20082;-87
2023/12/19 08:07:37;;;;;;;10.05;3.80;;;7.70;99.90;;;;;;4940042;29;20463;-87
2023/12/19 08:10:04;;;;;;;6.88;3.70;;;7.60;99.90;;;;;;4946409;29;20061;-87
2023/12/19 08:12:31;;;;;;;6.47;3.40;;;7.60;99.90;;;;;;4946933;29;20039;-86
2023/12/19 08:14:57;;;;;;;7.90;4.15;;;7.70;99.90;;;;;;4967845;29;20150;-87
2023/12/19 08:17:24;;;;;;;8.00;3.83;;;7.70;99.90;;;;;;4950414;29;20115;-87
2023/12/19 08:19:51;;;;;;;6.63;3.60;;;7.70;99.90;;;;;;4946019;29;20126;-87
2023/12/19 08:22:18;;;;;;;8.15;3.42;;;7.90;99.90;;;;;;4940908;29;20523;-87
2023/12/19 08:24:44;;;;;;;6.25;3.55;;;7.70;99.90;;;;;;4954799;29;20161;-87
2023/12/19 08:27:11;;;;;;;5.93;2.95;;;8.20;99.90;;;;;;4956168;29;20099;-85
2023/12/19 08:29:37;;;;;;;7.53;3.58;;;7.70;99.90;;;;;;4953601;29;20047;-86
2023/12/19 08:32:04;;;;;;;7.63;3.55;;;7.80;99.90;;;;;;4959738;29;20493;-84
2023/12/19 08:34:31;;;;;;;7.57;3.90;;;7.80;99.90;;;;;;4940630;29;20036;-85
2023/12/19 08:36:57;;;;;;;5.93;3.28;;;7.80;99.90;;;;;;4964182;29;20099;-85
2023/12/19 08:39:24;;;;;;;6.40;3.60;;;7.90;99.90;;;;;;4959622;29;20091;-85
2023/12/19 08:41:51;;;;;;;7.53;3.42;;;7.90;99.90;;;;;;4970106;29;20042;-85
2023/12/19 08:44:17;;;;;;;6.75;3.85;;;7.90;99.90;;;;;;4949097;29;20886;-85
2023/12/19 08:46:44;;;;;;;6.60;3.83;;;7.90;99.90;;;;;;4966728;29;20111;-85
2023/12/19 08:49:11;;;;;;;7.57;3.85;;;8.40;99.90;;;;;;4948056;29;20510;-84
2023/12/19 08:51:44;;;;;;;6.88;3.50;;;7.90;99.90;;;;;;4960226;29;20130;-86
2023/12/19 08:54:11;;;;;;;7.07;4.00;;;7.90;99.90;;;;;;4959867;29;20127;-85
2023/12/19 08:56:37;;;;;;;6.93;3.92;;;8.00;99.90;;;;;;4941691;29;20100;-84
2023/12/19 08:59:04;;;;;;;8.10;4.05;;;8.40;99.90;;;;;;4943341;29;20520;-85
2023/12/19 09:01:31;;;;;;;7.35;3.63;;;8.50;99.90;;;;;;4943322;29;20070;-86
2023/12/19 09:03:58;;;;;;;8.43;3.60;;;8.00;99.90;;;;;;4944051;29;20047;-85
2023/12/19 09:06:24;;;;;;;7.35;3.47;;;8.00;99.90;;;;;;4945516;29;20498;-85
2023/12/19 09:08:51;;;;;;;7.22;3.63;;;8.60;99.90;;;;;;4940596;29;20044;-85
2023/12/19 09:11:18;;;;;;;7.05;3.97;;;8.30;99.90;;;;;;4957475;29;20118;-86
2023/12/19 09:13:44;;;;;;;5.97;3.35;;;8.10;99.90;;;;;;4945695;29;20043;-86
2023/12/19 09:16:11;;;;;;;6.38;3.53;;;8.70;99.90;;;;;;4937393;29;20043;-86
2023/12/19 09:18:37;;;;;;;5.97;3.13;;;8.10;99.90;;;;;;4951867;29;20039;-85
2023/12/19 09:21:05;;;;;;;7.78;3.72;;;8.10;99.90;;;;;;4949965;29;20036;-86
2023/12/19 09:23:32;;;;;;;6.80;3.40;;;8.10;99.90;;;;;;4965651;29;20123;-85
2023/12/19 09:25:58;;;;;;;6.03;3.47;;;8.80;99.90;;;;;;4950105;29;20458;-86
2023/12/19 09:28:29;;;;;;;5.65;3.22;;;7.50;99.90;;;;;;4945911;29;20087;-86
2023/12/19 09:30:56;;;;;;;6.97;3.42;;;8.40;99.90;;;;;;4942833;29;20051;-85
2023/12/19 09:33:23;;;;;;;7.40;3.42;;;8.20;99.90;;;;;;4951843;29;20126;-87
2023/12/19 09:35:49;;;;;;;5.97;3.35;;;8.30;99.90;;;;;;4951876;29;20122;-85
2023/12/19 09:38:16;;;;;;;6.45;3.80;;;8.90;99.90;;;;;;4934862;29;20052;-86
2023/12/19 09:40:43;;;;;;;6.05;3.58;;;8.20;99.90;;;;;;4948868;29;20067;-86
2023/12/19 09:43:10;;;;;;;6.75;3.42;;;8.70;99.90;;;;;;4941599;29;20032;-85
2023/12/19 09:45:36;;;;;;;6.20;3.60;;;8.20;99.90;;;;;;4941323;29;20751;-86
2023/12/19 09:48:04;;;;;;;9.32;4.63;;;8.30;99.90;;;;;;4943565;29;20047;-85
2023/12/19 09:50:35;;;;;;;9.43;4.25;;;8.30;99.90;;;;;;4948098;29;20126;-85
2023/12/19 09:53:01;;;;;;;7.78;3.95;;;8.30;99.90;;;;;;4949013;29;20390;-86
2023/12/19 09:55:29;;;;;;;7.57;4.13;;;8.30;99.90;;;;;;4941437;29;20051;-86
2023/12/19 09:57:57;;;;;;;7.57;4.10;;;8.30;99.90;;;;;;4939063;29;20671;-86
2023/12/19 10:00:25;;;;;;;5.53;3.28;;;9.00;99.90;;;;;;4944798;29;20486;-85
2023/12/19 10:02:53;;;;;;;6.75;3.42;;;8.70;99.90;;;;;;4945289;29;20031;-86
2023/12/19 10:05:20;;;;;;;6.93;3.70;;;8.30;99.90;;;;;;4944073;29;20051;-86
2023/12/19 10:07:47;;;;;;;7.18;3.70;;;8.40;99.90;;;;;;4949736;29;20047;-86
2023/12/19 10:10:14;;;;;;;8.82;4.28;;;9.20;99.90;;;;;;4952983;29;20044;-85
2023/12/19 10:12:48;;;;;;;5.95;3.25;;;8.40;99.90;;;;;;4946047;29;20047;-86
2023/12/19 10:15:15;;;;;;;6.68;3.17;;;8.70;99.90;;;;;;4944957;29;20469;-86
2023/12/19 10:18:07;;;;;;;5.93;3.17;;;8.40;99.90;;;;;;4964680;29;20046;-86
2023/12/19 10:20:36;;;;;;;12.90;3.65;;;8.50;99.90;;;;;;4951052;29;20095;-86
2023/12/19 10:23:05;;;;;;;6.53;3.42;;;8.50;99.90;;;;;;4959800;29;20479;-84
2023/12/19 10:25:32;;;;;;;7.30;3.63;;;9.20;99.90;;;;;;4938124;29;20040;-84
2023/12/19 10:28:09;;;;;;;7.35;3.53;;;8.50;99.90;;;;;;4968104;29;20035;-86
2023/12/19 10:30:36;;;;;;;8.30;3.83;;;8.60;99.90;;;;;;4952287;29;20054;-85
2023/12/19 10:33:04;;;;;;;9.57;4.00;;;8.50;99.90;;;;;;4948656;29;20048;-86
2023/12/19 10:35:38;;;;;;;7.88;3.85;;;8.60;99.90;;;;;;4942119;29;20521;-86
2023/12/19 10:38:07;;;;;;;7.18;3.70;;;9.10;99.90;;;;;;4947077;29;20048;-86
2023/12/19 10:40:34;;;;;;;5.88;3.30;;;8.60;99.90;;;;;;4942849;29;20043;-86
2023/12/19 10:43:02;;;;;;;7.82;3.35;;;8.60;99.90;;;;;;4940624;29;20476;-86
2023/12/19 10:45:30;;;;;;;6.32;3.75;;;8.60;99.90;;;;;;4944561;29;20037;-86
2023/12/19 10:47:57;;;;;;;7.28;4.57;;;8.60;99.90;;;;;;4940904;29;20119;-86
2023/12/19 10:50:24;;;;;;;8.32;4.90;;;9.20;99.90;;;;;;4946879;29;20044;-86
2023/12/19 10:52:51;;;;;;;6.70;3.60;;;8.70;99.90;;;;;;4940143;29;20132;-86
2023/12/19 10:55:21;;;;;;;8.07;4.60;;;8.70;99.90;;;;;;4946268;29;20404;-86
2023/12/19 10:57:49;;;;;;;7.20;4.38;;;8.60;99.90;;;;;;4965595;29;20090;-86
2023/12/19 11:00:22;;;;;;;6.30;3.50;;;9.00;99.90;;;;;;4972474;29;20657;-87
2023/12/19 11:03:07;;;;;;;7.55;5.10;;;9.10;99.90;;;;;;4957546;29;20035;-86
2023/12/19 11:05:41;;;;;;;8.15;5.53;;;8.80;99.90;;;;;;4956940;29;20094;-86
2023/12/19 11:08:17;;;;;;;6.93;4.25;;;8.80;99.90;;;;;;4952348;29;20059;-86
2023/12/19 11:11:10;;;;;;;6.80;4.05;;;8.80;99.90;;;;;;4951763;29;20040;-87
2023/12/19 11:13:37;;;;;;;7.13;3.97;;;8.80;99.90;;;;;;4947467;29;20052;-87
2023/12/19 11:16:13;;;;;;;6.53;3.78;;;8.80;99.90;;;;;;4950425;29;20074;-87
2023/12/19 11:19:03;;;;;;;7.50;4.10;;;8.90;99.90;;;;;;4948072;29;20055;-87
2023/12/19 11:21:58;;;;;;;6.78;4.30;;;9.20;99.90;;;;;;4943775;29;20048;-87
2023/12/19 11:25:10;;;;;;;8.90;3.88;;;8.80;99.90;;;;;;4948278;29;20039;-88
2023/12/19 11:27:45;;;;;;;7.22;4.38;;;8.90;99.90;;;;;;4940655;29;20099;-87
2023/12/19 11:30:30;;;;;;;7.13;3.83;;;9.10;99.90;;;;;;4947276;29;20505;-88
2023/12/19 11:32:57;;;;;;;5.90;3.13;;;9.00;99.90;;;;;;4941004;29;20047;-87
2023/12/19 11:35:28;;;;;;;5.03;3.13;;;8.90;99.90;;;;;;4948282;29;20460;-87
2023/12/19 11:38:13;;;;;;;7.55;3.42;;;9.10;99.90;;;;;;4952872;29;20118;-87
2023/12/19 11:40:46;;;;;;;5.90;3.72;;;9.00;99.90;;;;;;4953759;29;20071;-87
2023/12/19 11:43:28;;;;;;;6.68;3.40;;;8.90;99.90;;;;;;4940915;29;20066;-84
2023/12/19 11:45:56;;;;;;;4.75;2.80;;;8.90;99.90;;;;;;4946735;29;20118;-87
2023/12/19 11:48:55;;;;;;;5.80;3.40;;;8.90;99.90;;;;;;4955645;29;20054;-83
2023/12/19 11:51:41;;;;;;;5.53;3.10;;;9.00;99.90;;;;;;4920603;29;20118;-90
2023/12/19 11:54:12;;;;;;;5.97;3.40;;;9.00;99.90;;;;;;4937256;29;20155;-87
2023/12/19 11:56:40;;;;;;;6.30;3.35;;;9.10;99.90;;;;;;4962118;29;20044;-86
2023/12/19 11:59:08;;;;;;;6.78;3.30;;;9.00;99.90;;;;;;4955096;29;20047;-87
2023/12/19 12:01:39;;;;;;;6.55;3.63;;;9.00;99.90;;;;;;4950932;29;20065;-86
2023/12/19 12:04:08;;;;;;;7.03;4.38;;;9.00;99.90;;;;;;4949323;29;20405;-86
2023/12/19 12:06:35;;;;;;;6.40;3.00;;;9.00;99.90;;;;;;4939934;29;20459;-85
2023/12/19 12:09:05;;;;;;;6.50;3.35;;;9.60;99.90;;;;;;4949538;29;20055;-87
2023/12/19 12:11:46;;;;;;;5.45;2.92;;;9.70;99.90;;;;;;4945915;29;20040;-87
2023/12/19 12:14:12;;;;;;;5.47;2.95;;;9.30;99.90;;;;;;4953133;29;20047;-86
2023/12/19 12:16:40;;;;;;;5.45;3.30;;;9.70;99.90;;;;;;4964761;29;20131;-86
2023/12/19 12:19:11;;;;;;;5.85;3.33;;;9.70;99.90;;;;;;4944238;29;20040;-87
2023/12/19 12:21:51;;;;;;;8.23;3.45;;;9.00;99.90;;;;;;4948716;29;20070;-87
2023/12/19 12:24:24;;;;;;;6.00;3.25;;;9.00;99.90;;;;;;4947065;29;20032;-87
2023/12/19 12:27:06;;;;;;;6.65;3.70;;;9.00;99.90;;;;;;4953918;29;20123;-87
2023/12/19 12:29:36;;;;;;;7.13;4.22;;;9.00;99.90;;;;;;4971056;29;20050;-87
2023/12/19 12:32:04;;;;;;;6.35;3.78;;;9.10;99.90;;;;;;4954237;29;20043;-86
2023/12/19 12:34:33;;;;;;;7.47;4.47;;;9.00;99.90;;;;;;4953542;29;20485;-86
2023/12/19 12:37:00;;;;;;;8.35;3.92;;;9.00;99.90;;;;;;4945766;29;20058;-88
2023/12/19 12:39:27;;;;;;;8.10;4.47;;;9.00;99.90;;;;;;4945675;29;20044;-88
2023/12/19 12:42:04;;;;;;;7.55;4.03;;;9.00;99.90;;;;;;4954940;29;20063;-86
2023/12/19 12:44:31;;;;;;;8.02;3.95;;;9.00;99.90;;;;;;4952543;29;20039;-87
2023/12/19 12:46:58;;;;;;;7.45;3.95;;;9.00;99.90;;;;;;4954740;29;20507;-87
2023/12/19 12:49:24;;;;;;;7.78;4.22;;;9.00;99.90;;;;;;4954025;29;20039;-86
2023/12/19 12:51:56;;;;;;;6.68;4.05;;;9.00;99.90;;;;;;4953252;29;20043;-87
2023/12/19 12:54:23;;;;;;;8.07;4.47;;;9.70;99.90;;;;;;4950030;29;20040;-86
2023/12/19 12:56:50;;;;;;;6.75;4.25;;;9.40;99.90;;;;;;4954793;29;20048;-87